createdAt,value
2023-04-13T00:00:32.376Z,2.10
2023-04-13T00:03:02.358Z,2.20
2023-04-13T00:05:30.684Z,2.00
2023-04-13T00:08:02.738Z,2.40
2023-04-13T00:10:32.104Z,2.27
2023-04-13T00:13:01.954Z,2.40
2023-04-13T00:15:30.725Z,2.30
2023-04-13T00:17:59.814Z,2.50
2023-04-13T00:20:28.240Z,2.60
2023-04-13T00:22:56.593Z,2.30
2023-04-13T00:25:25.011Z,2.47
2023-04-13T00:27:53.933Z,2.33
2023-04-13T00:30:23.637Z,2.10
2023-04-13T00:32:52.085Z,2.13
2023-04-13T00:35:25.041Z,2.20
2023-04-13T00:37:53.539Z,2.27
2023-04-13T00:40:21.609Z,2.30
2023-04-13T00:42:51.714Z,2.43
2023-04-13T00:45:22.988Z,2.30
2023-04-13T00:47:51.949Z,2.07
2023-04-13T00:50:21.993Z,2.70
2023-04-13T00:52:50.328Z,2.63
2023-04-13T00:55:21.511Z,2.80
2023-04-13T00:57:53.069Z,2.17
2023-04-13T01:00:24.854Z,2.27
2023-04-13T01:02:53.652Z,2.00
2023-04-13T01:05:23.105Z,2.30
2023-04-13T01:08:01.911Z,2.50
2023-04-13T01:10:36.586Z,1.90
2023-04-13T01:13:12.254Z,1.90
2023-04-13T01:15:47.684Z,1.97
2023-04-13T01:18:16.617Z,1.60
2023-04-13T01:20:47.724Z,1.50
2023-04-13T01:23:29.617Z,1.53
2023-04-13T01:26:00.670Z,1.60
2023-04-13T01:28:31.083Z,1.90
2023-04-13T01:31:01.324Z,1.30
2023-04-13T01:33:33.706Z,1.60
2023-04-13T01:36:03.026Z,1.57
2023-04-13T01:38:31.232Z,1.87
2023-04-13T01:40:59.337Z,1.70
2023-04-13T01:43:30.529Z,1.60
2023-04-13T01:46:04.414Z,1.73
2023-04-13T01:48:37.178Z,1.47
2023-04-13T01:51:13.482Z,2.20
2023-04-13T01:53:44.015Z,2.07
2023-04-13T01:56:13.104Z,1.80
2023-04-13T01:58:43.813Z,1.50
2023-04-13T02:01:13.039Z,1.50
2023-04-13T02:03:43.287Z,1.30
2023-04-13T02:06:12.045Z,1.50
2023-04-13T02:08:40.612Z,1.50
2023-04-13T02:11:10.536Z,1.53
2023-04-13T02:13:38.695Z,1.93
2023-04-13T02:16:10.358Z,1.60
2023-04-13T02:18:38.791Z,1.20
2023-04-13T02:21:09.359Z,1.50
2023-04-13T02:23:38.246Z,1.30
2023-04-13T02:26:08.849Z,1.53
2023-04-13T02:28:36.851Z,1.50
2023-04-13T02:31:06.130Z,1.43
2023-04-13T02:33:36.506Z,1.40
2023-04-13T02:36:05.514Z,1.47
2023-04-13T02:38:34.119Z,1.20
2023-04-13T02:41:03.595Z,1.67
2023-04-13T02:43:31.705Z,1.17
2023-04-13T02:45:59.866Z,1.43
2023-04-13T02:48:28.237Z,1.20
2023-04-13T02:50:57.617Z,1.40
2023-04-13T02:53:26.008Z,1.30
2023-04-13T02:55:55.826Z,1.70
2023-04-13T02:58:24.041Z,1.30
2023-04-13T03:00:52.150Z,1.77
2023-04-13T03:03:20.636Z,1.23
2023-04-13T03:05:50.349Z,1.53
2023-04-13T03:08:19.799Z,1.27
2023-04-13T03:10:47.840Z,1.60
2023-04-13T03:13:16.077Z,1.40
2023-04-13T03:15:44.239Z,1.23
2023-04-13T03:18:12.223Z,1.40
2023-04-13T03:20:40.202Z,1.70
2023-04-13T03:23:08.362Z,1.37
2023-04-13T03:25:37.742Z,1.40
2023-04-13T03:28:06.042Z,1.17
2023-04-13T03:30:34.036Z,1.30
2023-04-13T03:33:02.411Z,1.20
2023-04-13T03:35:30.720Z,1.80
2023-04-13T03:37:58.702Z,1.40
2023-04-13T03:40:27.851Z,1.20
2023-04-13T03:42:57.324Z,1.30
2023-04-13T03:45:25.302Z,1.27
2023-04-13T03:47:53.429Z,1.60
2023-04-13T03:50:21.725Z,1.10
2023-04-13T03:52:49.962Z,1.67
2023-04-13T03:55:18.742Z,1.40
2023-04-13T03:57:47.670Z,1.40
2023-04-13T04:00:18.270Z,1.40
2023-04-13T04:02:46.481Z,1.60
2023-04-13T04:05:16.322Z,1.60
2023-04-13T04:07:44.425Z,2.00
2023-04-13T04:10:12.577Z,1.43
2023-04-13T04:12:40.660Z,1.67
2023-04-13T04:15:09.625Z,1.43
2023-04-13T04:17:40.015Z,2.10
2023-04-13T04:20:10.628Z,1.40
2023-04-13T04:22:38.725Z,1.83
2023-04-13T04:25:07.527Z,1.43
2023-04-13T04:27:38.430Z,1.20
2023-04-13T04:30:11.075Z,1.70
2023-04-13T04:32:41.701Z,1.50
2023-04-13T04:35:12.289Z,1.77
2023-04-13T04:37:40.330Z,1.60
2023-04-13T04:40:10.135Z,1.70
2023-04-13T04:42:38.550Z,1.60
2023-04-13T04:45:07.277Z,1.50
2023-04-13T04:47:42.158Z,1.80
2023-04-13T04:50:12.951Z,1.50
2023-04-13T04:52:41.877Z,1.70
2023-04-13T04:55:11.178Z,1.40
2023-04-13T04:57:39.317Z,1.80
2023-04-13T05:00:15.738Z,2.57
2023-04-13T05:02:44.512Z,1.40
2023-04-13T05:05:14.430Z,1.90
2023-04-13T05:07:42.593Z,1.50
2023-04-13T05:10:11.121Z,1.70
2023-04-13T05:12:39.630Z,1.47
2023-04-13T05:15:09.108Z,1.70
2023-04-13T05:17:37.457Z,1.90
2023-04-13T05:20:06.851Z,2.40
2023-04-13T05:22:37.294Z,1.50
2023-04-13T05:25:06.736Z,1.90
2023-04-13T05:27:34.786Z,1.77
2023-04-13T05:30:03.689Z,1.90
2023-04-13T05:32:34.813Z,2.00
2023-04-13T05:35:04.445Z,1.97
2023-04-13T05:37:32.632Z,1.53
2023-04-13T05:40:02.518Z,1.93
2023-04-13T05:42:30.688Z,2.30
2023-04-13T05:44:59.023Z,1.90
2023-04-13T05:47:27.425Z,2.17
2023-04-13T05:49:55.723Z,1.63
2023-04-13T05:52:24.535Z,2.03
2023-04-13T05:54:52.690Z,2.10
2023-04-13T05:57:22.167Z,1.93
2023-04-13T05:59:51.809Z,2.30
2023-04-13T06:02:20.785Z,2.40
2023-04-13T06:04:49.193Z,2.40
2023-04-13T06:07:18.020Z,1.97
2023-04-13T06:09:46.116Z,2.50
2023-04-13T06:12:15.898Z,2.43
2023-04-13T06:14:45.409Z,1.97
2023-04-13T06:17:13.516Z,2.60
2023-04-13T06:19:41.537Z,2.53
2023-04-13T06:22:09.657Z,2.27
2023-04-13T06:24:37.945Z,2.20
2023-04-13T06:27:06.190Z,2.37
2023-04-13T06:29:34.723Z,2.30
2023-04-13T06:32:04.442Z,2.47
2023-04-13T06:34:32.508Z,2.50
2023-04-13T06:37:00.501Z,2.00
2023-04-13T06:39:29.376Z,2.47
2023-04-13T06:41:58.730Z,2.17
2023-04-13T06:44:27.218Z,2.33
2023-04-13T06:46:57.135Z,2.87
2023-04-13T06:49:28.943Z,2.27
2023-04-13T06:51:56.971Z,2.50
2023-04-13T06:54:24.973Z,2.73
2023-04-13T06:56:52.917Z,3.03
2023-04-13T06:59:21.165Z,2.30
2023-04-13T07:01:49.907Z,2.37
2023-04-13T07:04:18.406Z,2.20
2023-04-13T07:06:48.390Z,2.40
2023-04-13T07:09:16.957Z,1.80
2023-04-13T07:11:45.020Z,2.00
2023-04-13T07:14:12.995Z,2.50
2023-04-13T07:16:40.985Z,1.80
2023-04-13T07:19:18.705Z,1.97
2023-04-13T07:21:48.107Z,2.20
2023-04-13T07:24:16.066Z,2.30
2023-04-13T07:26:44.169Z,2.30
2023-04-13T07:29:13.808Z,2.07
2023-04-13T07:31:43.646Z,2.17
2023-04-13T07:34:13.014Z,2.20
2023-04-13T07:36:42.715Z,1.93
2023-04-13T07:39:12.693Z,2.40
2023-04-13T07:41:40.743Z,2.23
2023-04-13T07:44:12.487Z,2.50
2023-04-13T07:46:40.539Z,2.27
2023-04-13T07:49:08.512Z,3.00
2023-04-13T07:51:37.050Z,1.83
2023-04-13T07:54:05.344Z,2.20
2023-04-13T07:56:36.149Z,2.00
2023-04-13T07:59:04.710Z,1.97
2023-04-13T08:01:35.526Z,1.93
2023-04-13T08:04:03.589Z,1.93
2023-04-13T08:06:31.826Z,1.77
2023-04-13T08:09:03.009Z,1.97
2023-04-13T08:11:31.129Z,2.00
2023-04-13T08:14:00.720Z,2.37
2023-04-13T08:16:33.453Z,1.80
2023-04-13T08:19:02.303Z,2.17
2023-04-13T08:21:32.713Z,2.00
2023-04-13T08:24:01.271Z,2.07
2023-04-13T08:26:29.175Z,1.83
2023-04-13T08:28:58.022Z,1.90
2023-04-13T08:31:27.832Z,1.93
2023-04-13T08:33:57.606Z,1.93
2023-04-13T08:36:27.578Z,1.73
2023-04-13T08:38:55.754Z,1.87
2023-04-13T08:41:24.927Z,2.30
2023-04-13T08:43:53.448Z,2.13
2023-04-13T08:46:22.036Z,2.53
2023-04-13T08:48:56.146Z,1.77
2023-04-13T08:51:24.981Z,2.20
2023-04-13T08:53:54.788Z,2.30
2023-04-13T08:56:34.085Z,2.20
2023-04-13T08:59:12.629Z,1.70
2023-04-13T09:01:41.312Z,3.50
2023-04-13T09:04:13.626Z,2.40
2023-04-13T09:06:47.864Z,2.00
2023-04-13T09:09:17.100Z,2.37
2023-04-13T09:11:46.397Z,2.33
2023-04-13T09:14:16.926Z,2.30
2023-04-13T09:16:45.344Z,2.30
2023-04-13T09:19:16.022Z,2.07
2023-04-13T09:21:45.640Z,1.27
2023-04-13T09:24:14.220Z,1.77
2023-04-13T09:26:43.910Z,1.73
2023-04-13T09:29:16.381Z,1.40
2023-04-13T09:31:45.720Z,1.30
2023-04-13T09:34:16.520Z,1.50
2023-04-13T09:36:54.109Z,1.30
2023-04-13T09:39:28.156Z,1.60
2023-04-13T09:41:58.259Z,1.57
2023-04-13T09:44:28.388Z,1.30
2023-04-13T09:47:00.373Z,1.30
2023-04-13T09:49:38.616Z,1.50
2023-04-13T09:52:08.316Z,1.30
2023-04-13T09:54:39.587Z,1.10
2023-04-13T09:57:10.960Z,1.20
2023-04-13T09:59:39.012Z,1.63
2023-04-13T10:02:08.628Z,1.60
2023-04-13T10:04:38.206Z,1.33
2023-04-13T10:07:07.286Z,1.60
2023-04-13T10:09:36.729Z,1.37
2023-04-13T10:12:07.148Z,1.60
2023-04-13T10:14:39.241Z,1.77
2023-04-13T10:17:27.763Z,1.40
2023-04-13T10:20:02.451Z,1.80
2023-04-13T10:22:30.952Z,2.07
2023-04-13T10:24:58.954Z,1.77
2023-04-13T10:27:29.099Z,1.13
2023-04-13T10:29:57.577Z,1.50
2023-04-13T10:32:27.659Z,1.30
2023-04-13T10:34:57.189Z,1.63
2023-04-13T10:37:28.557Z,2.03
2023-04-13T10:40:06.623Z,1.40
2023-04-13T10:45:23.958Z,1.40
2023-04-13T10:47:52.920Z,1.50
2023-04-13T10:50:23.629Z,1.23
2023-04-13T10:52:59.180Z,1.40
2023-04-13T10:55:28.259Z,1.57
2023-04-13T10:57:57.546Z,1.27
2023-04-13T11:00:38.375Z,1.50
2023-04-13T11:03:15.314Z,1.23
2023-04-13T11:05:46.119Z,1.20
2023-04-13T11:08:20.426Z,1.40
2023-04-13T11:10:52.374Z,1.83
2023-04-13T11:13:20.899Z,1.90
2023-04-13T11:15:50.606Z,1.43
2023-04-13T11:18:26.633Z,1.30
2023-04-13T11:20:56.179Z,1.70
2023-04-13T11:23:24.595Z,1.40
2023-04-13T11:25:54.900Z,1.60
2023-04-13T11:28:23.983Z,1.90
2023-04-13T11:30:56.352Z,1.00
2023-04-13T11:33:28.797Z,1.40
2023-04-13T11:36:00.090Z,1.30
2023-04-13T11:38:29.199Z,1.13
2023-04-13T11:41:15.130Z,1.70
2023-04-13T11:43:48.238Z,1.30
2023-04-13T11:46:24.742Z,1.30
2023-04-13T11:48:53.378Z,1.33
2023-04-13T11:51:34.560Z,1.50
2023-04-13T11:54:08.513Z,1.43
2023-04-13T11:56:36.555Z,1.23
2023-04-13T11:59:04.531Z,1.53
2023-04-13T12:01:34.503Z,1.50
2023-04-13T12:04:14.746Z,1.40
2023-04-13T12:06:47.553Z,1.40
2023-04-13T12:09:17.968Z,1.37
2023-04-13T12:12:11.999Z,1.27
2023-04-13T12:14:54.602Z,1.77
2023-04-13T12:17:41.351Z,1.40
2023-04-13T12:20:17.210Z,1.47
2023-04-13T12:25:20.478Z,1.30
2023-04-13T12:27:51.096Z,1.73
2023-04-13T12:30:20.692Z,1.30
2023-04-13T12:32:49.883Z,1.40
2023-04-13T12:35:19.359Z,1.13
2023-04-13T12:37:49.806Z,0.87
2023-04-13T12:40:19.299Z,0.90
2023-04-13T12:42:48.605Z,0.93
2023-04-13T12:45:17.635Z,0.87
2023-04-13T12:47:45.667Z,0.80
2023-04-13T12:50:14.201Z,0.80
2023-04-13T12:52:44.289Z,1.00
2023-04-13T12:55:13.552Z,0.97
2023-04-13T12:57:41.667Z,0.80
2023-04-13T13:00:12.112Z,0.63
2023-04-13T13:02:40.562Z,0.80
2023-04-13T13:05:09.449Z,0.63
2023-04-13T13:07:37.457Z,0.80
2023-04-13T13:10:14.926Z,0.80
2023-04-13T13:12:55.828Z,0.70
2023-04-13T13:15:23.923Z,0.60
2023-04-13T13:17:51.839Z,0.70
2023-04-13T13:20:19.947Z,0.90
2023-04-13T13:22:48.406Z,0.47
2023-04-13T13:25:17.054Z,0.67
2023-04-13T13:30:18.167Z,0.70
2023-04-13T13:32:46.258Z,0.80
2023-04-13T13:35:14.728Z,0.50
2023-04-13T13:37:42.761Z,0.70
2023-04-13T13:40:13.315Z,1.20
2023-04-13T13:42:51.225Z,0.93
2023-04-13T13:45:21.854Z,0.93
2023-04-13T13:47:53.355Z,0.63
2023-04-13T13:50:22.460Z,0.90
2023-04-13T13:53:01.604Z,1.00
2023-04-13T13:55:31.013Z,1.00
2023-04-13T13:57:59.198Z,0.90
2023-04-13T14:00:29.157Z,1.00
2023-04-13T14:02:57.394Z,0.90
2023-04-13T14:05:25.562Z,1.00
2023-04-13T14:07:53.578Z,1.43
2023-04-13T14:10:21.664Z,1.00
2023-04-13T14:12:50.982Z,1.10
2023-04-13T14:15:19.784Z,1.00
2023-04-13T14:18:02.422Z,0.93
2023-04-13T14:20:38.882Z,0.90
2023-04-13T14:23:07.325Z,1.00
2023-04-13T14:25:35.302Z,1.10
2023-04-13T14:28:03.514Z,1.30
2023-04-13T14:30:31.559Z,1.23
2023-04-13T14:33:00.991Z,1.20
2023-04-13T14:35:29.269Z,1.27
2023-04-13T14:37:57.783Z,1.10
2023-04-13T14:40:26.319Z,0.93
2023-04-13T14:42:54.642Z,1.40
2023-04-13T14:45:22.771Z,1.60
2023-04-13T14:47:53.587Z,1.30
2023-04-13T14:50:23.131Z,1.13
2023-04-13T14:52:52.279Z,1.17
2023-04-13T14:55:20.815Z,1.00
2023-04-13T14:57:48.748Z,1.50
2023-04-13T15:00:21.607Z,1.20
2023-04-13T15:02:50.894Z,1.30
2023-04-13T15:05:19.768Z,1.97
2023-04-13T15:07:50.759Z,1.37
2023-04-13T15:10:19.252Z,1.37
2023-04-13T15:12:48.246Z,1.30
2023-04-13T15:15:16.720Z,1.67
2023-04-13T15:17:44.973Z,1.27
2023-04-13T15:20:13.027Z,1.40
2023-04-13T15:22:41.069Z,1.30
2023-04-13T15:25:11.161Z,1.10
2023-04-13T15:27:39.169Z,1.53
2023-04-13T15:30:10.057Z,1.47
2023-04-13T15:32:38.128Z,1.37
2023-04-13T15:35:07.543Z,1.40
2023-04-13T15:37:35.533Z,1.20
2023-04-13T15:40:07.639Z,0.93
2023-04-13T15:42:37.574Z,1.07
2023-04-13T15:45:07.219Z,1.63
2023-04-13T15:47:36.008Z,1.00
2023-04-13T15:50:04.867Z,1.60
2023-04-13T15:52:33.915Z,1.20
2023-04-13T15:55:02.036Z,1.40
2023-04-13T15:57:30.120Z,1.27
2023-04-13T15:59:59.440Z,1.03
2023-04-13T16:02:27.500Z,1.00
2023-04-13T16:04:56.156Z,1.23
2023-04-13T16:07:24.694Z,1.37
2023-04-13T16:09:56.299Z,1.30
2023-04-13T16:12:26.392Z,1.60
2023-04-13T16:14:56.143Z,1.63
2023-04-13T16:17:31.909Z,0.90
2023-04-13T16:20:06.449Z,0.93
2023-04-13T16:22:35.703Z,1.20
2023-04-13T16:25:05.730Z,1.63
2023-04-13T16:27:33.852Z,1.07
2023-04-13T16:30:04.445Z,1.23
2023-04-13T16:32:33.857Z,1.10
2023-04-13T16:35:01.799Z,1.10
2023-04-13T16:37:30.279Z,1.60
2023-04-13T16:39:58.569Z,1.20
2023-04-13T16:42:26.557Z,1.20
2023-04-13T16:44:54.564Z,1.40
2023-04-13T16:47:22.511Z,1.50
2023-04-13T16:49:51.912Z,1.57
2023-04-13T16:52:19.976Z,1.43
2023-04-13T16:54:47.929Z,1.30
2023-04-13T16:57:15.867Z,1.30
2023-04-13T16:59:43.813Z,1.50
2023-04-13T17:02:28.115Z,1.40
2023-04-13T17:05:01.037Z,1.30
2023-04-13T17:07:29.361Z,1.70
2023-04-13T17:09:57.344Z,1.70
2023-04-13T17:12:26.616Z,1.67
2023-04-13T17:14:54.582Z,1.67
2023-04-13T17:17:22.572Z,1.83
2023-04-13T17:19:52.989Z,1.87
2023-04-13T17:22:23.482Z,1.50
2023-04-13T17:24:51.626Z,1.40
2023-04-13T17:27:19.562Z,1.57
2023-04-13T17:29:49.078Z,1.40
2023-04-13T17:32:18.922Z,1.17
2023-04-13T17:34:46.878Z,1.47
2023-04-13T17:37:15.037Z,1.17
2023-04-13T17:39:47.584Z,3.00
2023-04-13T17:42:15.807Z,1.60
2023-04-13T17:44:44.670Z,1.40
2023-04-13T17:47:12.725Z,2.23
2023-04-13T17:49:41.384Z,1.93
2023-04-13T17:52:09.537Z,1.70
2023-04-13T17:54:37.642Z,1.90
2023-04-13T17:57:07.756Z,2.13
2023-04-13T17:59:35.942Z,1.97
2023-04-13T18:02:04.107Z,1.60
2023-04-13T18:04:33.098Z,1.70
2023-04-13T18:07:01.718Z,1.50
2023-04-13T18:09:29.711Z,1.67
2023-04-13T18:11:57.661Z,1.87
2023-04-13T18:14:27.051Z,1.80
2023-04-13T18:16:55.093Z,2.13
2023-04-13T18:19:23.131Z,2.30
2023-04-13T18:21:51.220Z,2.23
2023-04-13T18:24:19.285Z,1.87
2023-04-13T18:26:47.237Z,1.77
2023-04-13T18:29:15.374Z,1.80
2023-04-13T18:31:44.799Z,1.90
2023-04-13T18:34:15.033Z,1.90
2023-04-13T18:36:43.093Z,1.93
2023-04-13T18:39:11.109Z,2.40
2023-04-13T18:41:41.038Z,2.00
2023-04-13T18:44:10.416Z,1.93
2023-04-13T18:46:38.456Z,1.90
2023-04-13T18:49:07.789Z,1.53
2023-04-13T18:51:35.770Z,2.40
2023-04-13T18:54:04.929Z,1.83
2023-04-13T18:56:32.923Z,1.53
2023-04-13T18:59:01.078Z,3.03
2023-04-13T19:01:29.150Z,19.83
2023-04-13T19:03:58.343Z,25.10
2023-04-13T19:06:28.100Z,27.67
2023-04-13T19:08:56.059Z,14.77
2023-04-13T19:11:27.491Z,8.97
2023-04-13T19:13:55.905Z,5.97
2023-04-13T19:16:24.593Z,8.23
2023-04-13T19:18:52.793Z,8.90
2023-04-13T19:21:24.196Z,6.20
2023-04-13T19:23:53.506Z,2.97
2023-04-13T19:26:21.616Z,3.10
2023-04-13T19:28:51.600Z,3.20
2023-04-13T19:31:19.657Z,3.20
2023-04-13T19:33:48.767Z,2.93
2023-04-13T19:36:25.443Z,2.70
2023-04-13T19:38:55.634Z,3.33
2023-04-13T19:41:23.702Z,3.20
2023-04-13T19:43:52.695Z,3.07
2023-04-13T19:46:21.162Z,3.07
2023-04-13T19:48:50.054Z,3.07
2023-04-13T19:51:18.092Z,3.17
2023-04-13T19:53:46.872Z,2.83
2023-04-13T19:56:17.708Z,2.83
2023-04-13T19:58:45.980Z,2.67
2023-04-13T20:01:13.909Z,2.80
2023-04-13T20:03:42.664Z,2.73
2023-04-13T20:06:10.831Z,2.77
2023-04-13T20:08:39.307Z,3.17
2023-04-13T20:11:07.524Z,2.80
2023-04-13T20:13:36.995Z,2.67
2023-04-13T20:16:05.647Z,3.50
2023-04-13T20:18:33.784Z,3.00
2023-04-13T20:21:02.365Z,2.90
2023-04-13T20:23:31.454Z,2.50
2023-04-13T20:26:04.501Z,2.87
2023-04-13T20:28:33.289Z,2.50
2023-04-13T20:31:02.801Z,2.63
2023-04-13T20:33:30.966Z,2.50
2023-04-13T20:35:59.043Z,2.90
2023-04-13T20:38:29.919Z,2.77
2023-04-13T20:41:03.310Z,2.73
2023-04-13T20:43:31.384Z,2.40
2023-04-13T20:45:59.353Z,3.00
2023-04-13T20:51:03.252Z,2.60
2023-04-13T20:53:32.078Z,2.80
2023-04-13T20:56:00.366Z,2.90
2023-04-13T20:58:30.134Z,3.40
2023-04-13T21:00:59.161Z,3.50
2023-04-13T21:03:30.713Z,3.17
2023-04-13T21:05:59.250Z,3.53
2023-04-13T21:08:27.798Z,3.30
2023-04-13T21:10:55.798Z,3.60
2023-04-13T21:13:24.289Z,3.53
2023-04-13T21:15:52.676Z,3.33
2023-04-13T21:18:20.600Z,3.93
2023-04-13T21:20:49.960Z,3.47
2023-04-13T21:23:21.059Z,3.80
2023-04-13T21:25:49.200Z,3.30
2023-04-13T21:28:18.318Z,3.60
2023-04-13T21:30:46.275Z,3.90
2023-04-13T21:33:14.265Z,3.53
2023-04-13T21:35:42.341Z,3.37
2023-04-13T21:38:14.556Z,3.07
2023-04-13T21:40:42.722Z,3.57
2023-04-13T21:43:10.740Z,3.23
2023-04-13T21:45:38.797Z,3.37
2023-04-13T21:48:07.468Z,3.37
2023-04-13T21:50:35.442Z,3.20
2023-04-13T21:53:03.431Z,3.53
2023-04-13T21:55:32.851Z,3.50
2023-04-13T21:58:03.013Z,3.20
2023-04-13T22:00:33.674Z,3.60
2023-04-13T22:03:08.515Z,4.07
2023-04-13T22:05:36.771Z,4.30
2023-04-13T22:08:04.847Z,3.80
2023-04-13T22:10:34.653Z,4.10
2023-04-13T22:13:02.717Z,3.50
2023-04-13T22:15:31.059Z,3.33
2023-04-13T22:17:59.302Z,3.47
2023-04-13T22:20:27.330Z,3.40
2023-04-13T22:22:55.293Z,2.57
2023-04-13T22:25:25.314Z,3.07
2023-04-13T22:27:55.157Z,3.33
2023-04-13T22:30:23.635Z,3.03
2023-04-13T22:32:51.979Z,3.40
2023-04-13T22:35:19.953Z,2.83
2023-04-13T22:37:47.941Z,2.57
2023-04-13T22:40:16.241Z,2.50
2023-04-13T22:42:44.326Z,3.57
2023-04-13T22:45:14.020Z,5.07
2023-04-13T22:47:42.041Z,3.33
2023-04-13T22:50:10.597Z,2.90
2023-04-13T22:52:38.556Z,2.93
2023-04-13T22:55:07.129Z,3.00
2023-04-13T22:57:35.540Z,2.93
2023-04-13T23:00:03.767Z,2.63
2023-04-13T23:02:33.300Z,2.60
2023-04-13T23:05:01.629Z,2.50
2023-04-13T23:07:29.911Z,2.60
2023-04-13T23:09:57.906Z,3.30
2023-04-13T23:12:26.365Z,2.77
2023-04-13T23:14:54.322Z,2.77
2023-04-13T23:17:22.399Z,2.83
2023-04-13T23:19:54.692Z,3.07
2023-04-13T23:22:22.861Z,3.00
2023-04-13T23:24:50.866Z,3.07
2023-04-13T23:27:19.574Z,2.80
2023-04-13T23:29:50.451Z,3.00
2023-04-13T23:32:18.480Z,2.67
2023-04-13T23:34:46.450Z,2.50
2023-04-13T23:37:15.859Z,2.17
2023-04-13T23:39:44.158Z,2.43
2023-04-13T23:42:12.233Z,2.63
2023-04-13T23:44:40.381Z,2.43
2023-04-13T23:47:08.417Z,2.60
2023-04-13T23:49:36.664Z,2.73
2023-04-13T23:52:05.132Z,2.53
2023-04-13T23:54:34.504Z,2.83
2023-04-13T23:57:02.740Z,2.73
2023-04-13T23:59:30.708Z,2.80
